sensor_id;sensor_type;location;lat;lon;timestamp;pressure;altitude;pressure_sealevel;temperature
18219;BMP180;9234;49.344;11.120;2023-03-03T00:01:37;97653.00;;;0.90
18219;BMP180;9234;49.344;11.120;2023-03-03T00:04:06;97646.00;;;0.90
18219;BMP180;9234;49.344;11.120;2023-03-03T00:06:34;97634.00;;;0.80
18219;BMP180;9234;49.344;11.120;2023-03-03T00:09:02;97646.00;;;0.80
18219;BMP180;9234;49.344;11.120;2023-03-03T00:11:31;97632.00;;;0.80
18219;BMP180;9234;49.344;11.120;2023-03-03T00:13:59;97642.00;;;0.80
18219;BMP180;9234;49.344;11.120;2023-03-03T00:16:34;97631.00;;;0.80
18219;BMP180;9234;49.344;11.120;2023-03-03T00:19:12;97636.00;;;0.70
18219;BMP180;9234;49.344;11.120;2023-03-03T00:21:44;97638.00;;;0.70
18219;BMP180;9234;49.344;11.120;2023-03-03T00:24:22;97659.00;;;0.70
18219;BMP180;9234;49.344;11.120;2023-03-03T00:26:53;97643.00;;;0.70
18219;BMP180;9234;49.344;11.120;2023-03-03T00:29:40;97635.00;;;0.60
18219;BMP180;9234;49.344;11.120;2023-03-03T00:32:23;97652.00;;;0.60
18219;BMP180;9234;49.344;11.120;2023-03-03T00:34:54;97650.00;;;0.60
18219;BMP180;9234;49.344;11.120;2023-03-03T00:37:30;97637.00;;;0.60
18219;BMP180;9234;49.344;11.120;2023-03-03T00:40:20;97631.00;;;0.50
18219;BMP180;9234;49.344;11.120;2023-03-03T00:42:52;97643.00;;;0.50
18219;BMP180;9234;49.344;11.120;2023-03-03T00:45:28;97642.00;;;0.50
18219;BMP180;9234;49.344;11.120;2023-03-03T00:48:10;97644.00;;;0.50
18219;BMP180;9234;49.344;11.120;2023-03-03T00:50:43;97654.00;;;0.50
18219;BMP180;9234;49.344;11.120;2023-03-03T00:53:14;97650.00;;;0.50
18219;BMP180;9234;49.344;11.120;2023-03-03T00:55:45;97652.00;;;0.50
18219;BMP180;9234;49.344;11.120;2023-03-03T00:58:14;97651.00;;;0.50
18219;BMP180;9234;49.344;11.120;2023-03-03T01:00:46;97634.00;;;0.50
18219;BMP180;9234;49.344;11.120;2023-03-03T01:03:21;97643.00;;;0.60
18219;BMP180;9234;49.344;11.120;2023-03-03T01:05:51;97651.00;;;0.60
18219;BMP180;9234;49.344;11.120;2023-03-03T01:08:20;97652.00;;;0.60
18219;BMP180;9234;49.344;11.120;2023-03-03T01:10:52;97642.00;;;0.70
18219;BMP180;9234;49.344;11.120;2023-03-03T01:13:25;97625.00;;;0.70
18219;BMP180;9234;49.344;11.120;2023-03-03T01:15:54;97628.00;;;0.70
18219;BMP180;9234;49.344;11.120;2023-03-03T01:18:24;97621.00;;;0.70
18219;BMP180;9234;49.344;11.120;2023-03-03T01:20:53;97622.00;;;0.70
18219;BMP180;9234;49.344;11.120;2023-03-03T01:23:21;97630.00;;;0.70
18219;BMP180;9234;49.344;11.120;2023-03-03T01:25:49;97633.00;;;0.80
18219;BMP180;9234;49.344;11.120;2023-03-03T01:28:18;97638.00;;;0.80
18219;BMP180;9234;49.344;11.120;2023-03-03T01:30:47;97638.00;;;0.80
18219;BMP180;9234;49.344;11.120;2023-03-03T01:33:15;97641.00;;;0.80
18219;BMP180;9234;49.344;11.120;2023-03-03T01:35:46;97641.00;;;0.90
18219;BMP180;9234;49.344;11.120;2023-03-03T01:38:15;97629.00;;;0.90
18219;BMP180;9234;49.344;11.120;2023-03-03T01:40:53;97628.00;;;0.90
18219;BMP180;9234;49.344;11.120;2023-03-03T01:43:24;97632.00;;;0.90
18219;BMP180;9234;49.344;11.120;2023-03-03T01:46:32;97644.00;;;1.00
18219;BMP180;9234;49.344;11.120;2023-03-03T01:49:11;97643.00;;;1.10
18219;BMP180;9234;49.344;11.120;2023-03-03T01:51:49;97638.00;;;1.10
18219;BMP180;9234;49.344;11.120;2023-03-03T01:54:24;97631.00;;;1.20
18219;BMP180;9234;49.344;11.120;2023-03-03T01:56:58;97620.00;;;1.20
18219;BMP180;9234;49.344;11.120;2023-03-03T01:59:33;97630.00;;;1.30
18219;BMP180;9234;49.344;11.120;2023-03-03T02:02:03;97640.00;;;1.30
18219;BMP180;9234;49.344;11.120;2023-03-03T02:04:34;97632.00;;;1.30
18219;BMP180;9234;49.344;11.120;2023-03-03T02:07:07;97613.00;;;1.40
18219;BMP180;9234;49.344;11.120;2023-03-03T02:09:49;97622.00;;;1.30
18219;BMP180;9234;49.344;11.120;2023-03-03T02:12:22;97626.00;;;1.30
18219;BMP180;9234;49.344;11.120;2023-03-03T02:14:53;97629.00;;;1.20
18219;BMP180;9234;49.344;11.120;2023-03-03T02:17:21;97633.00;;;1.20
18219;BMP180;9234;49.344;11.120;2023-03-03T02:19:59;97639.00;;;1.10
18219;BMP180;9234;49.344;11.120;2023-03-03T02:22:40;97633.00;;;1.00
18219;BMP180;9234;49.344;11.120;2023-03-03T02:25:21;97631.00;;;1.00
18219;BMP180;9234;49.344;11.120;2023-03-03T02:27:52;97625.00;;;0.90
18219;BMP180;9234;49.344;11.120;2023-03-03T02:30:24;97637.00;;;0.80
18219;BMP180;9234;49.344;11.120;2023-03-03T02:32:53;97632.00;;;0.80
18219;BMP180;9234;49.344;11.120;2023-03-03T02:35:31;97622.00;;;0.70
18219;BMP180;9234;49.344;11.120;2023-03-03T02:38:13;97620.00;;;0.60
18219;BMP180;9234;49.344;11.120;2023-03-03T02:40:57;97635.00;;;0.60
18219;BMP180;9234;49.344;11.120;2023-03-03T02:43:35;97644.00;;;0.50
18219;BMP180;9234;49.344;11.120;2023-03-03T02:46:06;97643.00;;;0.50
18219;BMP180;9234;49.344;11.120;2023-03-03T02:48:34;97634.00;;;0.40
18219;BMP180;9234;49.344;11.120;2023-03-03T02:51:03;97635.00;;;0.40
18219;BMP180;9234;49.344;11.120;2023-03-03T02:53:31;97636.00;;;0.30
18219;BMP180;9234;49.344;11.120;2023-03-03T02:56:00;97632.00;;;0.30
18219;BMP180;9234;49.344;11.120;2023-03-03T02:58:31;97648.00;;;0.30
18219;BMP180;9234;49.344;11.120;2023-03-03T03:01:01;97628.00;;;0.30
18219;BMP180;9234;49.344;11.120;2023-03-03T03:03:29;97632.00;;;0.20
18219;BMP180;9234;49.344;11.120;2023-03-03T03:06:01;97633.00;;;0.20
18219;BMP180;9234;49.344;11.120;2023-03-03T03:08:29;97631.00;;;0.10
18219;BMP180;9234;49.344;11.120;2023-03-03T03:10:57;97627.00;;;0.10
18219;BMP180;9234;49.344;11.120;2023-03-03T03:13:27;97627.00;;;0.00
18219;BMP180;9234;49.344;11.120;2023-03-03T03:15:58;97636.00;;;0.00
18219;BMP180;9234;49.344;11.120;2023-03-03T03:18:27;97635.00;;;0.00
18219;BMP180;9234;49.344;11.120;2023-03-03T03:20:56;97634.00;;;0.00
18219;BMP180;9234;49.344;11.120;2023-03-03T03:23:25;97644.00;;;-0.10
18219;BMP180;9234;49.344;11.120;2023-03-03T03:25:54;97644.00;;;-0.10
18219;BMP180;9234;49.344;11.120;2023-03-03T03:28:27;97640.00;;;-0.20
18219;BMP180;9234;49.344;11.120;2023-03-03T03:30:57;97627.00;;;-0.20
18219;BMP180;9234;49.344;11.120;2023-03-03T03:33:26;97618.00;;;-0.30
18219;BMP180;9234;49.344;11.120;2023-03-03T03:35:56;97628.00;;;-0.30
18219;BMP180;9234;49.344;11.120;2023-03-03T03:38:26;97642.00;;;-0.30
18219;BMP180;9234;49.344;11.120;2023-03-03T03:40:56;97630.00;;;-0.30
18219;BMP180;9234;49.344;11.120;2023-03-03T03:43:26;97644.00;;;-0.40
18219;BMP180;9234;49.344;11.120;2023-03-03T03:45:54;97639.00;;;-0.40
18219;BMP180;9234;49.344;11.120;2023-03-03T03:48:26;97639.00;;;-0.40
18219;BMP180;9234;49.344;11.120;2023-03-03T03:50:55;97647.00;;;-0.40
18219;BMP180;9234;49.344;11.120;2023-03-03T03:53:25;97634.00;;;-0.50
18219;BMP180;9234;49.344;11.120;2023-03-03T03:55:54;97647.00;;;-0.50
18219;BMP180;9234;49.344;11.120;2023-03-03T03:58:22;97669.00;;;-0.50
18219;BMP180;9234;49.344;11.120;2023-03-03T04:01:01;97657.00;;;-0.60
18219;BMP180;9234;49.344;11.120;2023-03-03T04:03:32;97648.00;;;-0.60
18219;BMP180;9234;49.344;11.120;2023-03-03T04:06:03;97660.00;;;-0.60
18219;BMP180;9234;49.344;11.120;2023-03-03T04:08:33;97658.00;;;-0.70
18219;BMP180;9234;49.344;11.120;2023-03-03T04:11:02;97660.00;;;-0.70
18219;BMP180;9234;49.344;11.120;2023-03-03T04:13:31;97667.00;;;-0.70
18219;BMP180;9234;49.344;11.120;2023-03-03T04:16:03;97659.00;;;-0.70
18219;BMP180;9234;49.344;11.120;2023-03-03T04:18:33;97664.00;;;-0.70
18219;BMP180;9234;49.344;11.120;2023-03-03T04:21:03;97660.00;;;-0.80
18219;BMP180;9234;49.344;11.120;2023-03-03T04:23:32;97646.00;;;-0.80
18219;BMP180;9234;49.344;11.120;2023-03-03T04:26:01;97643.00;;;-0.80
18219;BMP180;9234;49.344;11.120;2023-03-03T04:28:29;97648.00;;;-0.90
18219;BMP180;9234;49.344;11.120;2023-03-03T04:30:58;97649.00;;;-0.90
18219;BMP180;9234;49.344;11.120;2023-03-03T04:33:29;97652.00;;;-0.90
18219;BMP180;9234;49.344;11.120;2023-03-03T04:36:00;97631.00;;;-0.90
18219;BMP180;9234;49.344;11.120;2023-03-03T04:38:28;97638.00;;;-1.00
18219;BMP180;9234;49.344;11.120;2023-03-03T04:40:57;97659.00;;;-1.00
18219;BMP180;9234;49.344;11.120;2023-03-03T04:43:27;97666.00;;;-1.00
18219;BMP180;9234;49.344;11.120;2023-03-03T04:45:56;97662.00;;;-1.00
18219;BMP180;9234;49.344;11.120;2023-03-03T04:48:25;97663.00;;;-1.00
18219;BMP180;9234;49.344;11.120;2023-03-03T04:50:53;97661.00;;;-1.00
18219;BMP180;9234;49.344;11.120;2023-03-03T04:53:23;97657.00;;;-1.00
18219;BMP180;9234;49.344;11.120;2023-03-03T04:55:52;97672.00;;;-1.00
18219;BMP180;9234;49.344;11.120;2023-03-03T04:58:22;97673.00;;;-1.10
18219;BMP180;9234;49.344;11.120;2023-03-03T05:00:55;97658.00;;;-1.10
18219;BMP180;9234;49.344;11.120;2023-03-03T05:03:26;97666.00;;;-1.10
18219;BMP180;9234;49.344;11.120;2023-03-03T05:05:54;97654.00;;;-1.10
18219;BMP180;9234;49.344;11.120;2023-03-03T05:08:24;97667.00;;;-1.20
18219;BMP180;9234;49.344;11.120;2023-03-03T05:10:53;97666.00;;;-1.20
18219;BMP180;9234;49.344;11.120;2023-03-03T05:13:22;97666.00;;;-1.20
18219;BMP180;9234;49.344;11.120;2023-03-03T05:15:51;97653.00;;;-1.20
18219;BMP180;9234;49.344;11.120;2023-03-03T05:18:22;97675.00;;;-1.20
18219;BMP180;9234;49.344;11.120;2023-03-03T05:20:51;97678.00;;;-1.20
18219;BMP180;9234;49.344;11.120;2023-03-03T05:23:20;97675.00;;;-1.20
18219;BMP180;9234;49.344;11.120;2023-03-03T05:25:50;97669.00;;;-1.30
18219;BMP180;9234;49.344;11.120;2023-03-03T05:28:18;97690.00;;;-1.30
18219;BMP180;9234;49.344;11.120;2023-03-03T05:30:46;97676.00;;;-1.30
18219;BMP180;9234;49.344;11.120;2023-03-03T05:33:17;97677.00;;;-1.30
18219;BMP180;9234;49.344;11.120;2023-03-03T05:35:46;97677.00;;;-1.30
18219;BMP180;9234;49.344;11.120;2023-03-03T05:38:14;97674.00;;;-1.30
18219;BMP180;9234;49.344;11.120;2023-03-03T05:40:42;97678.00;;;-1.30
18219;BMP180;9234;49.344;11.120;2023-03-03T05:43:12;97669.00;;;-1.30
18219;BMP180;9234;49.344;11.120;2023-03-03T05:45:40;97681.00;;;-1.30
18219;BMP180;9234;49.344;11.120;2023-03-03T05:48:09;97687.00;;;-1.30
18219;BMP180;9234;49.344;11.120;2023-03-03T05:50:38;97689.00;;;-1.40
18219;BMP180;9234;49.344;11.120;2023-03-03T05:53:06;97692.00;;;-1.30
18219;BMP180;9234;49.344;11.120;2023-03-03T05:55:35;97693.00;;;-1.40
18219;BMP180;9234;49.344;11.120;2023-03-03T05:58:03;97685.00;;;-1.40
18219;BMP180;9234;49.344;11.120;2023-03-03T06:00:33;97709.00;;;-1.40
18219;BMP180;9234;49.344;11.120;2023-03-03T06:03:01;97711.00;;;-1.40
18219;BMP180;9234;49.344;11.120;2023-03-03T06:05:29;97701.00;;;-1.40
18219;BMP180;9234;49.344;11.120;2023-03-03T06:07:57;97707.00;;;-1.40
18219;BMP180;9234;49.344;11.120;2023-03-03T06:10:26;97724.00;;;-1.40
18219;BMP180;9234;49.344;11.120;2023-03-03T06:12:58;97709.00;;;-1.40
18219;BMP180;9234;49.344;11.120;2023-03-03T06:15:27;97702.00;;;-1.40
18219;BMP180;9234;49.344;11.120;2023-03-03T06:17:56;97707.00;;;-1.50
18219;BMP180;9234;49.344;11.120;2023-03-03T06:20:25;97724.00;;;-1.40
18219;BMP180;9234;49.344;11.120;2023-03-03T06:22:53;97713.00;;;-1.40
18219;BMP180;9234;49.344;11.120;2023-03-03T06:25:21;97718.00;;;-1.40
18219;BMP180;9234;49.344;11.120;2023-03-03T06:27:50;97737.00;;;-1.40
18219;BMP180;9234;49.344;11.120;2023-03-03T06:30:19;97725.00;;;-1.40
18219;BMP180;9234;49.344;11.120;2023-03-03T06:32:47;97723.00;;;-1.40
18219;BMP180;9234;49.344;11.120;2023-03-03T06:35:17;97746.00;;;-1.40
18219;BMP180;9234;49.344;11.120;2023-03-03T06:37:45;97744.00;;;-1.40
18219;BMP180;9234;49.344;11.120;2023-03-03T06:40:16;97729.00;;;-1.40
18219;BMP180;9234;49.344;11.120;2023-03-03T06:42:45;97746.00;;;-1.30
18219;BMP180;9234;49.344;11.120;2023-03-03T06:45:14;97759.00;;;-1.20
18219;BMP180;9234;49.344;11.120;2023-03-03T06:47:42;97745.00;;;-1.10
18219;BMP180;9234;49.344;11.120;2023-03-03T06:50:12;97756.00;;;-1.00
18219;BMP180;9234;49.344;11.120;2023-03-03T06:52:41;97755.00;;;-0.90
18219;BMP180;9234;49.344;11.120;2023-03-03T06:55:17;97759.00;;;-0.70
18219;BMP180;9234;49.344;11.120;2023-03-03T06:57:46;97753.00;;;-0.50
18219;BMP180;9234;49.344;11.120;2023-03-03T07:00:19;97762.00;;;-0.40
18219;BMP180;9234;49.344;11.120;2023-03-03T07:02:57;97767.00;;;-0.20
18219;BMP180;9234;49.344;11.120;2023-03-03T07:05:28;97774.00;;;-0.10
18219;BMP180;9234;49.344;11.120;2023-03-03T07:07:58;97766.00;;;0.00
18219;BMP180;9234;49.344;11.120;2023-03-03T07:10:29;97770.00;;;0.10
18219;BMP180;9234;49.344;11.120;2023-03-03T07:13:13;97760.00;;;0.20
18219;BMP180;9234;49.344;11.120;2023-03-03T07:15:44;97760.00;;;0.30
18219;BMP180;9234;49.344;11.120;2023-03-03T07:18:32;97762.00;;;0.40
18219;BMP180;9234;49.344;11.120;2023-03-03T07:21:17;97752.00;;;0.60
18219;BMP180;9234;49.344;11.120;2023-03-03T07:23:49;97756.00;;;0.70
18219;BMP180;9234;49.344;11.120;2023-03-03T07:26:21;97771.00;;;0.80
18219;BMP180;9234;49.344;11.120;2023-03-03T07:28:54;97776.00;;;1.00
18219;BMP180;9234;49.344;11.120;2023-03-03T07:31:29;97788.00;;;1.10
18219;BMP180;9234;49.344;11.120;2023-03-03T07:34:01;97788.00;;;1.30
18219;BMP180;9234;49.344;11.120;2023-03-03T07:36:36;97787.00;;;1.40
18219;BMP180;9234;49.344;11.120;2023-03-03T07:39:27;97783.00;;;1.60
18219;BMP180;9234;49.344;11.120;2023-03-03T07:42:25;97790.00;;;1.80
18219;BMP180;9234;49.344;11.120;2023-03-03T07:45:25;97787.00;;;1.90
18219;BMP180;9234;49.344;11.120;2023-03-03T07:48:05;97788.00;;;2.00
18219;BMP180;9234;49.344;11.120;2023-03-03T07:50:36;97787.00;;;2.10
18219;BMP180;9234;49.344;11.120;2023-03-03T07:53:21;97789.00;;;2.10
18219;BMP180;9234;49.344;11.120;2023-03-03T07:55:53;97795.00;;;2.20
18219;BMP180;9234;49.344;11.120;2023-03-03T07:58:35;97796.00;;;2.20
18219;BMP180;9234;49.344;11.120;2023-03-03T08:01:38;97807.00;;;2.30
18219;BMP180;9234;49.344;11.120;2023-03-03T08:04:22;97818.00;;;2.40
18219;BMP180;9234;49.344;11.120;2023-03-03T08:06:55;97806.00;;;2.50
18219;BMP180;9234;49.344;11.120;2023-03-03T08:09:42;97821.00;;;2.60
18219;BMP180;9234;49.344;11.120;2023-03-03T08:12:32;97802.00;;;2.70
18219;BMP180;9234;49.344;11.120;2023-03-03T08:15:17;97810.00;;;2.80
18219;BMP180;9234;49.344;11.120;2023-03-03T08:17:48;97807.00;;;2.90
18219;BMP180;9234;49.344;11.120;2023-03-03T08:20:52;97814.00;;;3.00
18219;BMP180;9234;49.344;11.120;2023-03-03T08:23:21;97818.00;;;3.00
18219;BMP180;9234;49.344;11.120;2023-03-03T08:25:51;97827.00;;;3.10
18219;BMP180;9234;49.344;11.120;2023-03-03T08:28:22;97817.00;;;3.20
18219;BMP180;9234;49.344;11.120;2023-03-03T08:30:50;97822.00;;;3.30
18219;BMP180;9234;49.344;11.120;2023-03-03T08:33:35;97815.00;;;3.40
18219;BMP180;9234;49.344;11.120;2023-03-03T08:36:04;97826.00;;;3.50
18219;BMP180;9234;49.344;11.120;2023-03-03T08:38:35;97822.00;;;3.60
18219;BMP180;9234;49.344;11.120;2023-03-03T08:41:05;97823.00;;;3.70
18219;BMP180;9234;49.344;11.120;2023-03-03T08:43:34;97828.00;;;3.70
18219;BMP180;9234;49.344;11.120;2023-03-03T08:46:05;97820.00;;;3.80
18219;BMP180;9234;49.344;11.120;2023-03-03T08:48:36;97821.00;;;3.90
18219;BMP180;9234;49.344;11.120;2023-03-03T08:51:06;97821.00;;;3.90
18219;BMP180;9234;49.344;11.120;2023-03-03T08:53:34;97832.00;;;4.00
18219;BMP180;9234;49.344;11.120;2023-03-03T08:56:05;97830.00;;;4.10
18219;BMP180;9234;49.344;11.120;2023-03-03T08:58:35;97824.00;;;4.20
18219;BMP180;9234;49.344;11.120;2023-03-03T09:01:04;97826.00;;;4.30
18219;BMP180;9234;49.344;11.120;2023-03-03T09:03:32;97825.00;;;4.40
18219;BMP180;9234;49.344;11.120;2023-03-03T09:06:00;97842.00;;;4.50
18219;BMP180;9234;49.344;11.120;2023-03-03T09:08:28;97842.00;;;4.60
18219;BMP180;9234;49.344;11.120;2023-03-03T09:10:57;97836.00;;;4.70
18219;BMP180;9234;49.344;11.120;2023-03-03T09:13:28;97830.00;;;4.90
18219;BMP180;9234;49.344;11.120;2023-03-03T09:15:58;97824.00;;;5.00
18219;BMP180;9234;49.344;11.120;2023-03-03T09:18:34;97821.00;;;5.10
18219;BMP180;9234;49.344;11.120;2023-03-03T09:21:20;97824.00;;;5.20
18219;BMP180;9234;49.344;11.120;2023-03-03T09:23:54;97819.00;;;5.40
18219;BMP180;9234;49.344;11.120;2023-03-03T09:26:27;97826.00;;;5.50
18219;BMP180;9234;49.344;11.120;2023-03-03T09:29:17;97811.00;;;5.60
18219;BMP180;9234;49.344;11.120;2023-03-03T09:31:49;97816.00;;;5.80
18219;BMP180;9234;49.344;11.120;2023-03-03T09:34:26;97810.00;;;5.90
18219;BMP180;9234;49.344;11.120;2023-03-03T09:36:58;97820.00;;;6.10
18219;BMP180;9234;49.344;11.120;2023-03-03T09:39:30;97803.00;;;6.20
18219;BMP180;9234;49.344;11.120;2023-03-03T09:42:37;97822.00;;;6.30
18219;BMP180;9234;49.344;11.120;2023-03-03T09:45:49;97825.00;;;6.40
18219;BMP180;9234;49.344;11.120;2023-03-03T09:48:49;97819.00;;;6.60
18219;BMP180;9234;49.344;11.120;2023-03-03T09:51:59;97824.00;;;6.80
18219;BMP180;9234;49.344;11.120;2023-03-03T09:54:45;97840.00;;;6.90
18219;BMP180;9234;49.344;11.120;2023-03-03T09:57:30;97830.00;;;7.00
18219;BMP180;9234;49.344;11.120;2023-03-03T10:00:21;97843.00;;;7.20
18219;BMP180;9234;49.344;11.120;2023-03-03T10:03:13;97836.00;;;7.40
18219;BMP180;9234;49.344;11.120;2023-03-03T10:05:57;97847.00;;;7.50
18219;BMP180;9234;49.344;11.120;2023-03-03T10:08:44;97844.00;;;7.70
18219;BMP180;9234;49.344;11.120;2023-03-03T10:11:23;97847.00;;;7.90
18219;BMP180;9234;49.344;11.120;2023-03-03T10:14:35;97849.00;;;8.10
18219;BMP180;9234;49.344;11.120;2023-03-03T10:17:25;97849.00;;;8.20
18219;BMP180;9234;49.344;11.120;2023-03-03T10:20:16;97838.00;;;8.40
18219;BMP180;9234;49.344;11.120;2023-03-03T10:22:54;97837.00;;;8.40
18219;BMP180;9234;49.344;11.120;2023-03-03T10:25:38;97835.00;;;8.50
18219;BMP180;9234;49.344;11.120;2023-03-03T10:31:31;97819.00;;;8.90
18219;BMP180;9234;49.344;11.120;2023-03-03T10:34:22;97834.00;;;9.20
18219;BMP180;9234;49.344;11.120;2023-03-03T10:36:58;97828.00;;;9.50
18219;BMP180;9234;49.344;11.120;2023-03-03T10:40:09;97833.00;;;9.70
18219;BMP180;9234;49.344;11.120;2023-03-03T10:43:18;97826.00;;;10.00
18219;BMP180;9234;49.344;11.120;2023-03-03T10:46:28;97839.00;;;10.30
18219;BMP180;9234;49.344;11.120;2023-03-03T10:49:27;97838.00;;;10.60
18219;BMP180;9234;49.344;11.120;2023-03-03T10:52:31;97829.00;;;10.80
18219;BMP180;9234;49.344;11.120;2023-03-03T10:55:31;97819.00;;;11.00
18219;BMP180;9234;49.344;11.120;2023-03-03T10:58:44;97822.00;;;11.30
18219;BMP180;9234;49.344;11.120;2023-03-03T11:01:25;97825.00;;;11.50
18219;BMP180;9234;49.344;11.120;2023-03-03T11:04:24;97825.00;;;11.60
18219;BMP180;9234;49.344;11.120;2023-03-03T11:07:02;97825.00;;;11.70
18219;BMP180;9234;49.344;11.120;2023-03-03T11:09:51;97819.00;;;11.90
18219;BMP180;9234;49.344;11.120;2023-03-03T11:12:42;97816.00;;;12.00
18219;BMP180;9234;49.344;11.120;2023-03-03T11:15:32;97831.00;;;12.10
18219;BMP180;9234;49.344;11.120;2023-03-03T11:18:24;97828.00;;;12.40
18219;BMP180;9234;49.344;11.120;2023-03-03T11:21:08;97826.00;;;12.60
18219;BMP180;9234;49.344;11.120;2023-03-03T11:23:57;97821.00;;;12.80
18219;BMP180;9234;49.344;11.120;2023-03-03T11:27:08;97812.00;;;13.10
18219;BMP180;9234;49.344;11.120;2023-03-03T11:29:57;97824.00;;;13.40
18219;BMP180;9234;49.344;11.120;2023-03-03T11:32:40;97828.00;;;13.50
18219;BMP180;9234;49.344;11.120;2023-03-03T11:35:22;97817.00;;;13.70
18219;BMP180;9234;49.344;11.120;2023-03-03T11:38:09;97821.00;;;13.90
18219;BMP180;9234;49.344;11.120;2023-03-03T11:40:48;97815.00;;;14.10
18219;BMP180;9234;49.344;11.120;2023-03-03T11:43:23;97814.00;;;14.20
18219;BMP180;9234;49.344;11.120;2023-03-03T11:46:08;97803.00;;;14.30
18219;BMP180;9234;49.344;11.120;2023-03-03T11:48:51;97810.00;;;14.50
18219;BMP180;9234;49.344;11.120;2023-03-03T11:51:36;97800.00;;;14.70
18219;BMP180;9234;49.344;11.120;2023-03-03T11:54:16;97800.00;;;15.00
18219;BMP180;9234;49.344;11.120;2023-03-03T11:56:47;97804.00;;;15.20
18219;BMP180;9234;49.344;11.120;2023-03-03T11:59:40;97800.00;;;15.40
18219;BMP180;9234;49.344;11.120;2023-03-03T12:02:39;97808.00;;;15.60
18219;BMP180;9234;49.344;11.120;2023-03-03T12:05:24;97800.00;;;15.80
18219;BMP180;9234;49.344;11.120;2023-03-03T12:08:07;97807.00;;;16.10
18219;BMP180;9234;49.344;11.120;2023-03-03T12:10:49;97801.00;;;16.20
18219;BMP180;9234;49.344;11.120;2023-03-03T12:13:31;97786.00;;;16.20
18219;BMP180;9234;49.344;11.120;2023-03-03T12:16:11;97794.00;;;16.40
18219;BMP180;9234;49.344;11.120;2023-03-03T12:19:03;97780.00;;;16.50
18219;BMP180;9234;49.344;11.120;2023-03-03T12:21:53;97774.00;;;16.70
18219;BMP180;9234;49.344;11.120;2023-03-03T12:24:35;97773.00;;;17.00
18219;BMP180;9234;49.344;11.120;2023-03-03T12:27:22;97766.00;;;17.50
18219;BMP180;9234;49.344;11.120;2023-03-03T12:30:05;97772.00;;;17.80
18219;BMP180;9234;49.344;11.120;2023-03-03T12:35:56;97759.00;;;18.60
18219;BMP180;9234;49.344;11.120;2023-03-03T12:38:40;97759.00;;;18.70
18219;BMP180;9234;49.344;11.120;2023-03-03T12:41:21;97754.00;;;19.10
18219;BMP180;9234;49.344;11.120;2023-03-03T12:44:06;97756.00;;;19.20
18219;BMP180;9234;49.344;11.120;2023-03-03T12:46:44;97755.00;;;19.40
18219;BMP180;9234;49.344;11.120;2023-03-03T12:49:13;97753.00;;;19.70
18219;BMP180;9234;49.344;11.120;2023-03-03T12:52:06;97748.00;;;19.90
18219;BMP180;9234;49.344;11.120;2023-03-03T12:55:01;97747.00;;;20.20
18219;BMP180;9234;49.344;11.120;2023-03-03T12:57:42;97736.00;;;20.50
18219;BMP180;9234;49.344;11.120;2023-03-03T13:00:45;97749.00;;;20.70
18219;BMP180;9234;49.344;11.120;2023-03-03T13:03:34;97750.00;;;21.00
18219;BMP180;9234;49.344;11.120;2023-03-03T13:06:28;97740.00;;;21.00
18219;BMP180;9234;49.344;11.120;2023-03-03T13:09:14;97741.00;;;21.10
18219;BMP180;9234;49.344;11.120;2023-03-03T13:12:19;97741.00;;;21.30
18219;BMP180;9234;49.344;11.120;2023-03-03T13:14:56;97745.00;;;21.70
18219;BMP180;9234;49.344;11.120;2023-03-03T13:17:33;97749.00;;;21.90
18219;BMP180;9234;49.344;11.120;2023-03-03T13:20:11;97747.00;;;21.90
18219;BMP180;9234;49.344;11.120;2023-03-03T13:22:49;97745.00;;;21.90
18219;BMP180;9234;49.344;11.120;2023-03-03T13:25:40;97744.00;;;22.00
18219;BMP180;9234;49.344;11.120;2023-03-03T13:28:20;97738.00;;;22.20
18219;BMP180;9234;49.344;11.120;2023-03-03T13:30:53;97741.00;;;22.50
18219;BMP180;9234;49.344;11.120;2023-03-03T13:33:27;97737.00;;;22.60
18219;BMP180;9234;49.344;11.120;2023-03-03T13:35:59;97746.00;;;22.80
18219;BMP180;9234;49.344;11.120;2023-03-03T13:38:32;97732.00;;;23.20
18219;BMP180;9234;49.344;11.120;2023-03-03T13:41:13;97738.00;;;23.40
18219;BMP180;9234;49.344;11.120;2023-03-03T13:43:48;97735.00;;;23.50
18219;BMP180;9234;49.344;11.120;2023-03-03T13:46:29;97733.00;;;23.60
18219;BMP180;9234;49.344;11.120;2023-03-03T13:49:23;97729.00;;;23.80
18219;BMP180;9234;49.344;11.120;2023-03-03T13:52:01;97728.00;;;24.00
18219;BMP180;9234;49.344;11.120;2023-03-03T13:54:50;97732.00;;;24.10
18219;BMP180;9234;49.344;11.120;2023-03-03T13:57:54;97721.00;;;24.00
18219;BMP180;9234;49.344;11.120;2023-03-03T14:00:45;97718.00;;;24.00
18219;BMP180;9234;49.344;11.120;2023-03-03T14:04:08;97715.00;;;23.30
18219;BMP180;9234;49.344;11.120;2023-03-03T14:06:47;97716.00;;;23.10
18219;BMP180;9234;49.344;11.120;2023-03-03T14:09:40;97705.00;;;22.50
18219;BMP180;9234;49.344;11.120;2023-03-03T14:12:21;97704.00;;;22.20
18219;BMP180;9234;49.344;11.120;2023-03-03T14:15:02;97708.00;;;21.80
18219;BMP180;9234;49.344;11.120;2023-03-03T14:17:44;97708.00;;;21.60
18219;BMP180;9234;49.344;11.120;2023-03-03T14:20:23;97699.00;;;21.30
18219;BMP180;9234;49.344;11.120;2023-03-03T14:22:58;97716.00;;;21.20
18219;BMP180;9234;49.344;11.120;2023-03-03T14:25:58;97703.00;;;20.60
18219;BMP180;9234;49.344;11.120;2023-03-03T14:28:30;97706.00;;;20.20
18219;BMP180;9234;49.344;11.120;2023-03-03T14:31:19;97693.00;;;19.90
18219;BMP180;9234;49.344;11.120;2023-03-03T14:34:00;97699.00;;;20.30
18219;BMP180;9234;49.344;11.120;2023-03-03T14:36:32;97706.00;;;20.80
18219;BMP180;9234;49.344;11.120;2023-03-03T14:39:30;97701.00;;;20.90
18219;BMP180;9234;49.344;11.120;2023-03-03T14:42:00;97702.00;;;20.80
18219;BMP180;9234;49.344;11.120;2023-03-03T14:44:35;97703.00;;;20.40
18219;BMP180;9234;49.344;11.120;2023-03-03T14:47:27;97697.00;;;20.10
18219;BMP180;9234;49.344;11.120;2023-03-03T14:49:57;97702.00;;;20.10
18219;BMP180;9234;49.344;11.120;2023-03-03T14:52:29;97704.00;;;20.40
18219;BMP180;9234;49.344;11.120;2023-03-03T14:54:59;97698.00;;;20.30
18219;BMP180;9234;49.344;11.120;2023-03-03T14:57:40;97695.00;;;20.50
18219;BMP180;9234;49.344;11.120;2023-03-03T15:00:31;97702.00;;;21.10
18219;BMP180;9234;49.344;11.120;2023-03-03T15:03:20;97701.00;;;21.60
18219;BMP180;9234;49.344;11.120;2023-03-03T15:05:51;97697.00;;;22.00
18219;BMP180;9234;49.344;11.120;2023-03-03T15:08:31;97701.00;;;22.30
18219;BMP180;9234;49.344;11.120;2023-03-03T15:11:17;97710.00;;;22.30
18219;BMP180;9234;49.344;11.120;2023-03-03T15:13:47;97707.00;;;22.30
18219;BMP180;9234;49.344;11.120;2023-03-03T15:16:18;97687.00;;;22.30
18219;BMP180;9234;49.344;11.120;2023-03-03T15:19:35;97694.00;;;22.40